sensor_id;sensor_type;location;lat;lon;timestamp;P1;durP1;ratioP1;P2;durP2;ratioP2
14474;SDS011;7323;50.848;4.334;2023-04-24T00:00:37;17.37;;;12.30;;
14474;SDS011;7323;50.848;4.334;2023-04-24T00:03:07;17.63;;;13.33;;
14474;SDS011;7323;50.848;4.334;2023-04-24T00:05:34;18.93;;;13.03;;
14474;SDS011;7323;50.848;4.334;2023-04-24T00:08:00;20.27;;;12.77;;
14474;SDS011;7323;50.848;4.334;2023-04-24T00:10:29;16.77;;;12.70;;
14474;SDS011;7323;50.848;4.334;2023-04-24T00:13:00;19.23;;;13.50;;
14474;SDS011;7323;50.848;4.334;2023-04-24T00:15:29;19.57;;;12.83;;
14474;SDS011;7323;50.848;4.334;2023-04-24T00:17:56;19.63;;;13.20;;
14474;SDS011;7323;50.848;4.334;2023-04-24T00:20:24;18.87;;;12.80;;
14474;SDS011;7323;50.848;4.334;2023-04-24T00:23:02;17.10;;;13.40;;
14474;SDS011;7323;50.848;4.334;2023-04-24T00:25:39;15.53;;;12.43;;
14474;SDS011;7323;50.848;4.334;2023-04-24T00:28:09;22.67;;;13.33;;
14474;SDS011;7323;50.848;4.334;2023-04-24T00:30:40;15.83;;;12.73;;
14474;SDS011;7323;50.848;4.334;2023-04-24T00:33:31;19.53;;;14.00;;
14474;SDS011;7323;50.848;4.334;2023-04-24T00:36:15;18.60;;;13.37;;
14474;SDS011;7323;50.848;4.334;2023-04-24T00:38:57;23.50;;;13.83;;
14474;SDS011;7323;50.848;4.334;2023-04-24T00:41:24;18.90;;;14.00;;
14474;SDS011;7323;50.848;4.334;2023-04-24T00:43:54;16.90;;;13.90;;
14474;SDS011;7323;50.848;4.334;2023-04-24T00:46:23;21.10;;;14.80;;
14474;SDS011;7323;50.848;4.334;2023-04-24T00:48:50;20.33;;;13.37;;
14474;SDS011;7323;50.848;4.334;2023-04-24T00:51:16;19.33;;;13.47;;
14474;SDS011;7323;50.848;4.334;2023-04-24T00:53:45;19.53;;;13.00;;
14474;SDS011;7323;50.848;4.334;2023-04-24T00:56:17;20.10;;;14.10;;
14474;SDS011;7323;50.848;4.334;2023-04-24T00:58:44;21.10;;;13.90;;
14474;SDS011;7323;50.848;4.334;2023-04-24T01:01:10;18.60;;;14.13;;
14474;SDS011;7323;50.848;4.334;2023-04-24T01:03:37;22.40;;;14.03;;
14474;SDS011;7323;50.848;4.334;2023-04-24T01:06:03;19.37;;;14.13;;
14474;SDS011;7323;50.848;4.334;2023-04-24T01:08:30;17.47;;;14.70;;
14474;SDS011;7323;50.848;4.334;2023-04-24T01:10:58;19.33;;;14.13;;
14474;SDS011;7323;50.848;4.334;2023-04-24T01:13:25;18.23;;;14.20;;
14474;SDS011;7323;50.848;4.334;2023-04-24T01:15:54;18.90;;;14.20;;
14474;SDS011;7323;50.848;4.334;2023-04-24T01:18:20;25.40;;;14.53;;
14474;SDS011;7323;50.848;4.334;2023-04-24T01:20:46;19.90;;;14.03;;
14474;SDS011;7323;50.848;4.334;2023-04-24T01:23:16;18.00;;;13.57;;
14474;SDS011;7323;50.848;4.334;2023-04-24T01:25:42;15.23;;;13.07;;
14474;SDS011;7323;50.848;4.334;2023-04-24T01:28:11;18.93;;;14.17;;
14474;SDS011;7323;50.848;4.334;2023-04-24T01:30:41;18.00;;;13.53;;
14474;SDS011;7323;50.848;4.334;2023-04-24T01:35:39;18.97;;;12.90;;
14474;SDS011;7323;50.848;4.334;2023-04-24T01:38:11;17.67;;;12.67;;
14474;SDS011;7323;50.848;4.334;2023-04-24T01:40:41;15.83;;;11.97;;
14474;SDS011;7323;50.848;4.334;2023-04-24T01:43:09;15.67;;;11.60;;
14474;SDS011;7323;50.848;4.334;2023-04-24T01:45:44;16.47;;;12.50;;
14474;SDS011;7323;50.848;4.334;2023-04-24T01:48:12;16.60;;;11.87;;
14474;SDS011;7323;50.848;4.334;2023-04-24T01:50:45;15.73;;;11.40;;
14474;SDS011;7323;50.848;4.334;2023-04-24T01:53:24;15.40;;;11.33;;
14474;SDS011;7323;50.848;4.334;2023-04-24T01:58:43;14.80;;;11.80;;
14474;SDS011;7323;50.848;4.334;2023-04-24T02:01:13;15.80;;;12.60;;
14474;SDS011;7323;50.848;4.334;2023-04-24T02:03:46;12.93;;;11.50;;
14474;SDS011;7323;50.848;4.334;2023-04-24T02:06:12;13.87;;;11.43;;
14474;SDS011;7323;50.848;4.334;2023-04-24T02:08:38;16.03;;;11.63;;
14474;SDS011;7323;50.848;4.334;2023-04-24T02:11:04;17.63;;;13.20;;
14474;SDS011;7323;50.848;4.334;2023-04-24T02:13:31;18.30;;;13.50;;
14474;SDS011;7323;50.848;4.334;2023-04-24T02:15:58;15.30;;;13.27;;
14474;SDS011;7323;50.848;4.334;2023-04-24T02:18:27;18.23;;;14.37;;
14474;SDS011;7323;50.848;4.334;2023-04-24T02:20:59;18.33;;;12.73;;
14474;SDS011;7323;50.848;4.334;2023-04-24T02:23:27;14.20;;;11.47;;
14474;SDS011;7323;50.848;4.334;2023-04-24T02:25:54;14.10;;;11.37;;
14474;SDS011;7323;50.848;4.334;2023-04-24T02:28:20;15.93;;;13.03;;
14474;SDS011;7323;50.848;4.334;2023-04-24T02:30:50;19.60;;;12.73;;
14474;SDS011;7323;50.848;4.334;2023-04-24T02:33:19;15.23;;;11.93;;
14474;SDS011;7323;50.848;4.334;2023-04-24T02:36:08;17.70;;;13.33;;
14474;SDS011;7323;50.848;4.334;2023-04-24T02:38:34;18.03;;;13.17;;
14474;SDS011;7323;50.848;4.334;2023-04-24T02:43:51;19.07;;;13.53;;
14474;SDS011;7323;50.848;4.334;2023-04-24T02:46:19;16.70;;;13.33;;
14474;SDS011;7323;50.848;4.334;2023-04-24T02:48:46;18.77;;;12.20;;
14474;SDS011;7323;50.848;4.334;2023-04-24T02:51:13;17.50;;;12.33;;
14474;SDS011;7323;50.848;4.334;2023-04-24T02:53:44;15.63;;;13.07;;
14474;SDS011;7323;50.848;4.334;2023-04-24T02:56:10;16.23;;;12.90;;
14474;SDS011;7323;50.848;4.334;2023-04-24T02:58:38;15.33;;;12.20;;
14474;SDS011;7323;50.848;4.334;2023-04-24T03:01:10;17.30;;;12.30;;
14474;SDS011;7323;50.848;4.334;2023-04-24T03:03:37;14.77;;;12.43;;
14474;SDS011;7323;50.848;4.334;2023-04-24T03:06:20;15.13;;;12.17;;
14474;SDS011;7323;50.848;4.334;2023-04-24T03:08:49;17.53;;;11.37;;
14474;SDS011;7323;50.848;4.334;2023-04-24T03:11:20;18.00;;;11.90;;
14474;SDS011;7323;50.848;4.334;2023-04-24T03:13:49;16.03;;;12.23;;
14474;SDS011;7323;50.848;4.334;2023-04-24T03:16:15;15.20;;;12.40;;
14474;SDS011;7323;50.848;4.334;2023-04-24T03:22:08;13.50;;;11.50;;
14474;SDS011;7323;50.848;4.334;2023-04-24T03:24:35;15.43;;;11.90;;
14474;SDS011;7323;50.848;4.334;2023-04-24T03:27:01;16.83;;;12.07;;
14474;SDS011;7323;50.848;4.334;2023-04-24T03:29:27;17.20;;;11.73;;
14474;SDS011;7323;50.848;4.334;2023-04-24T03:31:55;14.67;;;11.63;;
14474;SDS011;7323;50.848;4.334;2023-04-24T03:34:23;17.17;;;12.27;;
14474;SDS011;7323;50.848;4.334;2023-04-24T03:36:49;15.77;;;11.97;;
14474;SDS011;7323;50.848;4.334;2023-04-24T03:39:17;14.90;;;11.60;;
14474;SDS011;7323;50.848;4.334;2023-04-24T03:41:43;17.97;;;12.13;;
14474;SDS011;7323;50.848;4.334;2023-04-24T03:44:09;13.87;;;10.90;;
14474;SDS011;7323;50.848;4.334;2023-04-24T03:46:41;12.53;;;9.70;;
14474;SDS011;7323;50.848;4.334;2023-04-24T03:49:07;15.00;;;10.07;;
14474;SDS011;7323;50.848;4.334;2023-04-24T03:51:33;11.07;;;8.53;;
14474;SDS011;7323;50.848;4.334;2023-04-24T03:53:59;11.10;;;9.03;;
14474;SDS011;7323;50.848;4.334;2023-04-24T03:56:25;10.67;;;8.43;;
14474;SDS011;7323;50.848;4.334;2023-04-24T04:02:46;10.20;;;7.67;;
14474;SDS011;7323;50.848;4.334;2023-04-24T04:05:12;9.23;;;7.23;;
14474;SDS011;7323;50.848;4.334;2023-04-24T04:07:39;8.40;;;7.50;;
14474;SDS011;7323;50.848;4.334;2023-04-24T04:10:08;10.87;;;7.63;;
14474;SDS011;7323;50.848;4.334;2023-04-24T04:12:33;9.63;;;7.40;;
14474;SDS011;7323;50.848;4.334;2023-04-24T04:15:00;8.60;;;6.77;;
14474;SDS011;7323;50.848;4.334;2023-04-24T04:17:26;11.13;;;7.47;;
14474;SDS011;7323;50.848;4.334;2023-04-24T04:19:52;8.83;;;6.90;;
14474;SDS011;7323;50.848;4.334;2023-04-24T04:22:18;9.33;;;7.10;;
14474;SDS011;7323;50.848;4.334;2023-04-24T04:24:44;9.10;;;8.10;;
14474;SDS011;7323;50.848;4.334;2023-04-24T04:27:12;7.83;;;6.53;;
14474;SDS011;7323;50.848;4.334;2023-04-24T04:29:38;7.33;;;6.40;;
14474;SDS011;7323;50.848;4.334;2023-04-24T04:32:10;8.73;;;6.87;;
14474;SDS011;7323;50.848;4.334;2023-04-24T04:34:39;8.57;;;7.03;;
14474;SDS011;7323;50.848;4.334;2023-04-24T04:37:08;8.70;;;6.43;;
14474;SDS011;7323;50.848;4.334;2023-04-24T04:39:40;10.33;;;7.10;;
14474;SDS011;7323;50.848;4.334;2023-04-24T04:42:06;9.83;;;7.40;;
14474;SDS011;7323;50.848;4.334;2023-04-24T04:44:32;7.80;;;6.37;;
14474;SDS011;7323;50.848;4.334;2023-04-24T04:47:01;11.47;;;7.57;;
14474;SDS011;7323;50.848;4.334;2023-04-24T04:49:31;8.90;;;7.87;;
14474;SDS011;7323;50.848;4.334;2023-04-24T04:52:03;11.47;;;8.40;;
14474;SDS011;7323;50.848;4.334;2023-04-24T04:54:30;9.83;;;8.57;;
14474;SDS011;7323;50.848;4.334;2023-04-24T04:56:56;14.10;;;10.47;;
14474;SDS011;7323;50.848;4.334;2023-04-24T04:59:25;14.03;;;10.70;;
14474;SDS011;7323;50.848;4.334;2023-04-24T05:01:52;17.17;;;11.27;;
14474;SDS011;7323;50.848;4.334;2023-04-24T05:04:20;16.00;;;10.83;;
14474;SDS011;7323;50.848;4.334;2023-04-24T05:06:47;14.83;;;11.77;;
14474;SDS011;7323;50.848;4.334;2023-04-24T05:09:14;15.27;;;11.20;;
14474;SDS011;7323;50.848;4.334;2023-04-24T05:11:42;17.93;;;12.07;;
14474;SDS011;7323;50.848;4.334;2023-04-24T05:14:12;14.17;;;11.57;;
14474;SDS011;7323;50.848;4.334;2023-04-24T05:16:47;14.90;;;11.77;;
14474;SDS011;7323;50.848;4.334;2023-04-24T05:22:11;15.80;;;11.47;;
14474;SDS011;7323;50.848;4.334;2023-04-24T05:24:51;15.80;;;12.07;;
14474;SDS011;7323;50.848;4.334;2023-04-24T05:27:17;20.57;;;11.87;;
14474;SDS011;7323;50.848;4.334;2023-04-24T05:29:43;16.50;;;11.87;;
14474;SDS011;7323;50.848;4.334;2023-04-24T05:32:14;15.03;;;11.70;;
14474;SDS011;7323;50.848;4.334;2023-04-24T05:34:41;16.67;;;12.20;;
14474;SDS011;7323;50.848;4.334;2023-04-24T05:37:09;17.67;;;12.60;;
14474;SDS011;7323;50.848;4.334;2023-04-24T05:39:38;16.77;;;12.40;;
14474;SDS011;7323;50.848;4.334;2023-04-24T05:42:06;15.70;;;12.13;;
14474;SDS011;7323;50.848;4.334;2023-04-24T05:44:32;15.47;;;12.07;;
14474;SDS011;7323;50.848;4.334;2023-04-24T05:46:58;16.97;;;11.50;;
14474;SDS011;7323;50.848;4.334;2023-04-24T05:51:53;19.10;;;12.50;;
14474;SDS011;7323;50.848;4.334;2023-04-24T05:54:40;15.73;;;12.30;;
14474;SDS011;7323;50.848;4.334;2023-04-24T05:57:09;16.07;;;12.57;;
14474;SDS011;7323;50.848;4.334;2023-04-24T05:59:36;17.20;;;12.23;;
14474;SDS011;7323;50.848;4.334;2023-04-24T06:02:12;23.33;;;13.30;;
14474;SDS011;7323;50.848;4.334;2023-04-24T06:07:09;16.43;;;12.60;;
14474;SDS011;7323;50.848;4.334;2023-04-24T06:09:38;18.53;;;13.03;;
14474;SDS011;7323;50.848;4.334;2023-04-24T06:12:04;17.23;;;13.40;;
14474;SDS011;7323;50.848;4.334;2023-04-24T06:14:34;15.77;;;12.23;;
14474;SDS011;7323;50.848;4.334;2023-04-24T06:17:01;20.03;;;13.13;;
14474;SDS011;7323;50.848;4.334;2023-04-24T06:19:27;19.70;;;13.67;;
14474;SDS011;7323;50.848;4.334;2023-04-24T06:24:29;17.73;;;13.57;;
14474;SDS011;7323;50.848;4.334;2023-04-24T06:26:56;17.20;;;12.87;;
14474;SDS011;7323;50.848;4.334;2023-04-24T06:29:24;21.20;;;14.20;;
14474;SDS011;7323;50.848;4.334;2023-04-24T06:31:50;24.60;;;15.27;;
14474;SDS011;7323;50.848;4.334;2023-04-24T06:34:17;19.17;;;14.53;;
14474;SDS011;7323;50.848;4.334;2023-04-24T06:36:44;19.97;;;14.67;;
14474;SDS011;7323;50.848;4.334;2023-04-24T06:39:13;21.70;;;14.93;;
14474;SDS011;7323;50.848;4.334;2023-04-24T06:41:39;20.63;;;14.47;;
14474;SDS011;7323;50.848;4.334;2023-04-24T06:44:14;23.70;;;15.27;;
14474;SDS011;7323;50.848;4.334;2023-04-24T06:46:40;21.80;;;15.83;;
14474;SDS011;7323;50.848;4.334;2023-04-24T06:49:06;20.67;;;15.90;;
14474;SDS011;7323;50.848;4.334;2023-04-24T06:51:35;27.30;;;18.07;;
14474;SDS011;7323;50.848;4.334;2023-04-24T06:54:01;24.73;;;17.77;;
14474;SDS011;7323;50.848;4.334;2023-04-24T06:56:27;29.53;;;20.93;;
14474;SDS011;7323;50.848;4.334;2023-04-24T06:58:59;32.07;;;18.47;;
14474;SDS011;7323;50.848;4.334;2023-04-24T07:01:25;30.30;;;20.10;;
14474;SDS011;7323;50.848;4.334;2023-04-24T07:03:53;25.50;;;17.83;;
14474;SDS011;7323;50.848;4.334;2023-04-24T07:06:20;26.43;;;19.57;;
14474;SDS011;7323;50.848;4.334;2023-04-24T07:08:49;26.90;;;19.03;;
14474;SDS011;7323;50.848;4.334;2023-04-24T07:11:21;26.37;;;17.57;;
14474;SDS011;7323;50.848;4.334;2023-04-24T07:13:48;21.80;;;16.03;;
14474;SDS011;7323;50.848;4.334;2023-04-24T07:16:15;27.37;;;16.13;;
14474;SDS011;7323;50.848;4.334;2023-04-24T07:18:44;21.30;;;15.17;;
14474;SDS011;7323;50.848;4.334;2023-04-24T07:21:11;23.87;;;15.23;;
14474;SDS011;7323;50.848;4.334;2023-04-24T07:23:38;22.50;;;15.17;;
14474;SDS011;7323;50.848;4.334;2023-04-24T07:26:06;22.83;;;15.20;;
14474;SDS011;7323;50.848;4.334;2023-04-24T07:28:34;19.27;;;14.73;;
14474;SDS011;7323;50.848;4.334;2023-04-24T07:31:00;19.60;;;13.83;;
14474;SDS011;7323;50.848;4.334;2023-04-24T07:33:26;19.43;;;13.87;;
14474;SDS011;7323;50.848;4.334;2023-04-24T07:35:52;27.50;;;16.40;;
14474;SDS011;7323;50.848;4.334;2023-04-24T07:38:19;25.67;;;15.70;;
14474;SDS011;7323;50.848;4.334;2023-04-24T07:40:48;21.23;;;14.23;;
14474;SDS011;7323;50.848;4.334;2023-04-24T07:43:19;18.07;;;12.13;;
14474;SDS011;7323;50.848;4.334;2023-04-24T07:45:55;22.53;;;14.07;;
14474;SDS011;7323;50.848;4.334;2023-04-24T07:51:22;24.47;;;16.57;;
14474;SDS011;7323;50.848;4.334;2023-04-24T07:53:48;26.03;;;17.50;;
14474;SDS011;7323;50.848;4.334;2023-04-24T07:56:14;21.27;;;13.60;;
14474;SDS011;7323;50.848;4.334;2023-04-24T07:58:45;29.00;;;20.07;;
14474;SDS011;7323;50.848;4.334;2023-04-24T08:01:11;34.07;;;20.70;;
14474;SDS011;7323;50.848;4.334;2023-04-24T08:03:38;16.20;;;11.70;;
14474;SDS011;7323;50.848;4.334;2023-04-24T08:06:04;15.67;;;10.83;;
14474;SDS011;7323;50.848;4.334;2023-04-24T08:08:30;15.60;;;11.50;;
14474;SDS011;7323;50.848;4.334;2023-04-24T08:10:59;18.37;;;12.97;;
14474;SDS011;7323;50.848;4.334;2023-04-24T08:13:25;16.30;;;11.60;;
14474;SDS011;7323;50.848;4.334;2023-04-24T08:15:53;21.10;;;12.93;;
14474;SDS011;7323;50.848;4.334;2023-04-24T08:18:21;20.57;;;12.90;;
14474;SDS011;7323;50.848;4.334;2023-04-24T08:20:51;14.90;;;8.83;;
14474;SDS011;7323;50.848;4.334;2023-04-24T08:25:54;14.40;;;7.50;;
14474;SDS011;7323;50.848;4.334;2023-04-24T08:28:26;19.50;;;9.00;;
14474;SDS011;7323;50.848;4.334;2023-04-24T08:30:53;16.10;;;9.10;;
14474;SDS011;7323;50.848;4.334;2023-04-24T08:33:22;15.57;;;8.33;;
14474;SDS011;7323;50.848;4.334;2023-04-24T08:35:48;15.37;;;9.40;;
14474;SDS011;7323;50.848;4.334;2023-04-24T08:38:14;20.33;;;11.43;;
14474;SDS011;7323;50.848;4.334;2023-04-24T08:40:41;15.33;;;9.87;;
14474;SDS011;7323;50.848;4.334;2023-04-24T08:43:07;13.43;;;8.60;;
14474;SDS011;7323;50.848;4.334;2023-04-24T08:45:36;19.50;;;11.20;;
14474;SDS011;7323;50.848;4.334;2023-04-24T08:48:03;14.80;;;10.00;;
14474;SDS011;7323;50.848;4.334;2023-04-24T08:50:31;15.90;;;7.20;;
14474;SDS011;7323;50.848;4.334;2023-04-24T08:53:02;12.77;;;6.97;;
14474;SDS011;7323;50.848;4.334;2023-04-24T08:55:33;12.57;;;6.40;;
14474;SDS011;7323;50.848;4.334;2023-04-24T08:57:59;11.10;;;6.43;;
14474;SDS011;7323;50.848;4.334;2023-04-24T09:00:28;13.30;;;6.13;;
14474;SDS011;7323;50.848;4.334;2023-04-24T09:05:22;11.13;;;6.87;;
14474;SDS011;7323;50.848;4.334;2023-04-24T09:07:55;10.03;;;5.57;;
14474;SDS011;7323;50.848;4.334;2023-04-24T09:10:23;10.47;;;6.73;;
14474;SDS011;7323;50.848;4.334;2023-04-24T09:12:50;14.97;;;9.10;;
14474;SDS011;7323;50.848;4.334;2023-04-24T09:15:16;10.40;;;4.90;;
14474;SDS011;7323;50.848;4.334;2023-04-24T09:17:46;8.47;;;6.03;;
14474;SDS011;7323;50.848;4.334;2023-04-24T09:20:12;10.43;;;4.90;;
14474;SDS011;7323;50.848;4.334;2023-04-24T09:22:41;10.77;;;5.23;;
14474;SDS011;7323;50.848;4.334;2023-04-24T09:25:09;8.93;;;5.00;;
14474;SDS011;7323;50.848;4.334;2023-04-24T09:27:41;9.13;;;5.27;;
14474;SDS011;7323;50.848;4.334;2023-04-24T09:30:13;8.17;;;4.47;;
14474;SDS011;7323;50.848;4.334;2023-04-24T09:32:51;8.23;;;4.73;;
14474;SDS011;7323;50.848;4.334;2023-04-24T09:35:40;8.53;;;4.43;;
14474;SDS011;7323;50.848;4.334;2023-04-24T09:38:07;8.70;;;5.70;;
14474;SDS011;7323;50.848;4.334;2023-04-24T09:40:34;11.83;;;5.53;;
14474;SDS011;7323;50.848;4.334;2023-04-24T09:43:09;9.43;;;6.33;;
14474;SDS011;7323;50.848;4.334;2023-04-24T09:45:44;10.63;;;5.93;;
14474;SDS011;7323;50.848;4.334;2023-04-24T09:48:13;9.67;;;5.20;;
14474;SDS011;7323;50.848;4.334;2023-04-24T09:50:45;9.10;;;4.17;;
14474;SDS011;7323;50.848;4.334;2023-04-24T09:53:20;7.63;;;4.67;;
14474;SDS011;7323;50.848;4.334;2023-04-24T09:55:53;12.47;;;4.57;;
14474;SDS011;7323;50.848;4.334;2023-04-24T09:58:25;7.47;;;4.70;;
14474;SDS011;7323;50.848;4.334;2023-04-24T10:00:56;12.33;;;5.30;;
14474;SDS011;7323;50.848;4.334;2023-04-24T10:03:25;9.07;;;5.27;;
14474;SDS011;7323;50.848;4.334;2023-04-24T10:08:36;9.57;;;5.17;;
14474;SDS011;7323;50.848;4.334;2023-04-24T10:11:03;11.00;;;4.33;;
14474;SDS011;7323;50.848;4.334;2023-04-24T10:13:36;13.83;;;7.50;;
14474;SDS011;7323;50.848;4.334;2023-04-24T10:16:05;9.33;;;4.87;;
14474;SDS011;7323;50.848;4.334;2023-04-24T10:18:34;7.80;;;4.40;;
14474;SDS011;7323;50.848;4.334;2023-04-24T10:21:12;8.57;;;4.70;;
14474;SDS011;7323;50.848;4.334;2023-04-24T10:23:38;7.53;;;4.50;;
14474;SDS011;7323;50.848;4.334;2023-04-24T10:26:17;12.13;;;5.07;;
14474;SDS011;7323;50.848;4.334;2023-04-24T10:28:45;9.37;;;5.40;;
14474;SDS011;7323;50.848;4.334;2023-04-24T10:31:12;12.97;;;5.57;;
14474;SDS011;7323;50.848;4.334;2023-04-24T10:33:42;10.67;;;5.37;;
14474;SDS011;7323;50.848;4.334;2023-04-24T10:36:10;10.10;;;5.30;;
14474;SDS011;7323;50.848;4.334;2023-04-24T10:38:38;7.63;;;4.47;;
14474;SDS011;7323;50.848;4.334;2023-04-24T10:41:09;8.60;;;4.97;;
14474;SDS011;7323;50.848;4.334;2023-04-24T10:43:44;8.63;;;4.93;;
14474;SDS011;7323;50.848;4.334;2023-04-24T10:46:38;9.03;;;4.77;;
14474;SDS011;7323;50.848;4.334;2023-04-24T10:49:08;7.73;;;4.90;;
14474;SDS011;7323;50.848;4.334;2023-04-24T10:52:13;8.30;;;5.07;;
14474;SDS011;7323;50.848;4.334;2023-04-24T10:54:36;9.50;;;4.70;;
14474;SDS011;7323;50.848;4.334;2023-04-24T10:59:50;7.23;;;5.13;;
14474;SDS011;7323;50.848;4.334;2023-04-24T11:05:14;11.17;;;5.43;;
14474;SDS011;7323;50.848;4.334;2023-04-24T11:10:40;10.43;;;6.73;;
14474;SDS011;7323;50.848;4.334;2023-04-24T11:13:10;11.97;;;5.77;;
14474;SDS011;7323;50.848;4.334;2023-04-24T11:15:43;8.27;;;5.00;;
14474;SDS011;7323;50.848;4.334;2023-04-24T11:18:13;8.53;;;5.03;;
14474;SDS011;7323;50.848;4.334;2023-04-24T11:20:44;8.90;;;5.77;;
14474;SDS011;7323;50.848;4.334;2023-04-24T11:23:12;8.40;;;5.10;;
14474;SDS011;7323;50.848;4.334;2023-04-24T11:25:39;9.83;;;6.33;;
14474;SDS011;7323;50.848;4.334;2023-04-24T11:28:08;8.43;;;5.30;;
14474;SDS011;7323;50.848;4.334;2023-04-24T11:30:41;8.73;;;4.63;;
14474;SDS011;7323;50.848;4.334;2023-04-24T11:33:07;8.87;;;5.00;;
14474;SDS011;7323;50.848;4.334;2023-04-24T11:35:39;8.03;;;4.93;;
14474;SDS011;7323;50.848;4.334;2023-04-24T11:38:05;8.83;;;5.20;;
14474;SDS011;7323;50.848;4.334;2023-04-24T11:40:32;8.87;;;5.20;;
14474;SDS011;7323;50.848;4.334;2023-04-24T11:43:03;9.37;;;5.27;;
14474;SDS011;7323;50.848;4.334;2023-04-24T11:45:30;7.13;;;5.43;;
14474;SDS011;7323;50.848;4.334;2023-04-24T11:47:57;9.23;;;5.63;;
14474;SDS011;7323;50.848;4.334;2023-04-24T11:50:26;9.00;;;5.93;;
14474;SDS011;7323;50.848;4.334;2023-04-24T11:52:53;7.10;;;5.60;;
14474;SDS011;7323;50.848;4.334;2023-04-24T11:57:49;9.13;;;5.07;;
14474;SDS011;7323;50.848;4.334;2023-04-24T12:00:19;9.03;;;5.23;;
14474;SDS011;7323;50.848;4.334;2023-04-24T12:02:52;7.87;;;5.87;;
14474;SDS011;7323;50.848;4.334;2023-04-24T12:05:28;7.77;;;6.23;;
14474;SDS011;7323;50.848;4.334;2023-04-24T12:07:56;8.77;;;6.40;;
14474;SDS011;7323;50.848;4.334;2023-04-24T12:10:22;10.57;;;7.93;;
14474;SDS011;7323;50.848;4.334;2023-04-24T12:12:50;12.47;;;6.57;;
14474;SDS011;7323;50.848;4.334;2023-04-24T12:15:17;10.57;;;7.70;;
14474;SDS011;7323;50.848;4.334;2023-04-24T12:17:44;10.73;;;7.40;;
14474;SDS011;7323;50.848;4.334;2023-04-24T12:20:12;26.30;;;14.10;;
14474;SDS011;7323;50.848;4.334;2023-04-24T12:25:31;7.30;;;5.20;;
14474;SDS011;7323;50.848;4.334;2023-04-24T12:30:30;8.87;;;5.63;;
14474;SDS011;7323;50.848;4.334;2023-04-24T12:33:04;6.70;;;4.90;;
14474;SDS011;7323;50.848;4.334;2023-04-24T12:35:30;7.43;;;6.43;;
14474;SDS011;7323;50.848;4.334;2023-04-24T12:43:37;6.40;;;4.57;;
14474;SDS011;7323;50.848;4.334;2023-04-24T12:46:03;10.30;;;5.93;;
14474;SDS011;7323;50.848;4.334;2023-04-24T12:48:30;10.30;;;6.07;;
14474;SDS011;7323;50.848;4.334;2023-04-24T12:50:59;10.00;;;5.63;;
14474;SDS011;7323;50.848;4.334;2023-04-24T12:53:28;6.87;;;4.87;;
14474;SDS011;7323;50.848;4.334;2023-04-24T12:55:56;5.90;;;4.30;;
14474;SDS011;7323;50.848;4.334;2023-04-24T12:58:23;6.50;;;4.60;;
14474;SDS011;7323;50.848;4.334;2023-04-24T13:00:49;6.90;;;4.33;;
14474;SDS011;7323;50.848;4.334;2023-04-24T13:03:15;6.67;;;4.40;;
14474;SDS011;7323;50.848;4.334;2023-04-24T13:05:42;8.10;;;5.20;;
14474;SDS011;7323;50.848;4.334;2023-04-24T13:08:08;7.10;;;5.47;;
14474;SDS011;7323;50.848;4.334;2023-04-24T13:10:34;6.30;;;4.40;;
14474;SDS011;7323;50.848;4.334;2023-04-24T13:13:03;7.90;;;4.30;;
14474;SDS011;7323;50.848;4.334;2023-04-24T13:15:32;5.50;;;3.43;;
14474;SDS011;7323;50.848;4.334;2023-04-24T13:17:58;7.20;;;4.10;;
14474;SDS011;7323;50.848;4.334;2023-04-24T13:20:23;9.50;;;4.60;;
14474;SDS011;7323;50.848;4.334;2023-04-24T13:22:49;6.80;;;3.67;;
14474;SDS011;7323;50.848;4.334;2023-04-24T13:25:15;7.60;;;3.57;;
14474;SDS011;7323;50.848;4.334;2023-04-24T13:27:42;8.27;;;3.60;;
14474;SDS011;7323;50.848;4.334;2023-04-24T13:30:08;5.30;;;3.30;;
14474;SDS011;7323;50.848;4.334;2023-04-24T13:32:36;5.80;;;3.13;;
14474;SDS011;7323;50.848;4.334;2023-04-24T13:35:02;4.97;;;3.20;;
14474;SDS011;7323;50.848;4.334;2023-04-24T13:37:28;6.43;;;3.43;;
14474;SDS011;7323;50.848;4.334;2023-04-24T13:39:53;7.97;;;3.17;;
14474;SDS011;7323;50.848;4.334;2023-04-24T13:42:22;7.13;;;3.20;;
14474;SDS011;7323;50.848;4.334;2023-04-24T13:44:49;7.13;;;3.80;;
14474;SDS011;7323;50.848;4.334;2023-04-24T13:47:16;5.63;;;3.30;;
14474;SDS011;7323;50.848;4.334;2023-04-24T13:49:41;6.17;;;3.07;;
14474;SDS011;7323;50.848;4.334;2023-04-24T13:52:07;5.80;;;2.97;;
14474;SDS011;7323;50.848;4.334;2023-04-24T13:54:35;5.67;;;3.07;;
14474;SDS011;7323;50.848;4.334;2023-04-24T13:57:01;6.03;;;3.00;;
14474;SDS011;7323;50.848;4.334;2023-04-24T13:59:27;3.90;;;2.47;;
14474;SDS011;7323;50.848;4.334;2023-04-24T14:01:53;6.23;;;2.57;;
14474;SDS011;7323;50.848;4.334;2023-04-24T14:04:20;5.23;;;2.53;;
14474;SDS011;7323;50.848;4.334;2023-04-24T14:06:47;6.73;;;2.30;;
14474;SDS011;7323;50.848;4.334;2023-04-24T14:09:13;8.33;;;3.50;;
14474;SDS011;7323;50.848;4.334;2023-04-24T14:11:39;5.77;;;2.30;;
14474;SDS011;7323;50.848;4.334;2023-04-24T14:14:05;4.90;;;2.07;;
14474;SDS011;7323;50.848;4.334;2023-04-24T14:16:33;4.47;;;2.43;;
14474;SDS011;7323;50.848;4.334;2023-04-24T14:18:59;4.83;;;2.53;;
14474;SDS011;7323;50.848;4.334;2023-04-24T14:21:26;6.03;;;2.40;;
14474;SDS011;7323;50.848;4.334;2023-04-24T14:23:51;4.00;;;2.10;;
14474;SDS011;7323;50.848;4.334;2023-04-24T14:26:17;5.20;;;2.30;;
14474;SDS011;7323;50.848;4.334;2023-04-24T14:28:43;4.90;;;2.40;;
14474;SDS011;7323;50.848;4.334;2023-04-24T14:31:10;4.33;;;2.10;;
14474;SDS011;7323;50.848;4.334;2023-04-24T14:33:36;14.10;;;8.13;;
14474;SDS011;7323;50.848;4.334;2023-04-24T14:36:04;4.23;;;2.33;;
14474;SDS011;7323;50.848;4.334;2023-04-24T14:38:37;10.97;;;3.20;;
14474;SDS011;7323;50.848;4.334;2023-04-24T14:41:03;6.43;;;2.80;;
14474;SDS011;7323;50.848;4.334;2023-04-24T14:43:34;4.40;;;2.33;;
14474;SDS011;7323;50.848;4.334;2023-04-24T14:46:00;7.10;;;2.60;;
14474;SDS011;7323;50.848;4.334;2023-04-24T14:48:27;5.53;;;2.30;;
14474;SDS011;7323;50.848;4.334;2023-04-24T14:50:54;4.83;;;2.10;;
14474;SDS011;7323;50.848;4.334;2023-04-24T14:53:20;4.17;;;2.23;;
14474;SDS011;7323;50.848;4.334;2023-04-24T14:55:46;6.50;;;2.23;;
14474;SDS011;7323;50.848;4.334;2023-04-24T14:58:11;6.47;;;2.60;;
14474;SDS011;7323;50.848;4.334;2023-04-24T15:00:37;4.77;;;2.30;;
14474;SDS011;7323;50.848;4.334;2023-04-24T15:03:03;4.60;;;2.10;;
14474;SDS011;7323;50.848;4.334;2023-04-24T15:05:29;6.10;;;2.40;;
14474;SDS011;7323;50.848;4.334;2023-04-24T15:07:55;6.27;;;3.27;;
14474;SDS011;7323;50.848;4.334;2023-04-24T15:10:21;5.53;;;2.20;;
14474;SDS011;7323;50.848;4.334;2023-04-24T15:12:48;5.70;;;2.63;;
14474;SDS011;7323;50.848;4.334;2023-04-24T15:15:13;3.73;;;1.70;;
14474;SDS011;7323;50.848;4.334;2023-04-24T15:17:42;5.00;;;1.87;;
14474;SDS011;7323;50.848;4.334;2023-04-24T15:20:10;5.33;;;2.60;;
14474;SDS011;7323;50.848;4.334;2023-04-24T15:22:37;4.47;;;1.73;;
14474;SDS011;7323;50.848;4.334;2023-04-24T15:25:04;3.83;;;1.63;;
14474;SDS011;7323;50.848;4.334;2023-04-24T15:27:48;5.73;;;1.87;;
14474;SDS011;7323;50.848;4.334;2023-04-24T15:30:14;3.63;;;1.60;;
14474;SDS011;7323;50.848;4.334;2023-04-24T15:32:40;6.87;;;1.93;;
14474;SDS011;7323;50.848;4.334;2023-04-24T15:35:05;2.70;;;1.47;;
14474;SDS011;7323;50.848;4.334;2023-04-24T15:37:33;5.67;;;1.80;;
14474;SDS011;7323;50.848;4.334;2023-04-24T15:40:00;3.50;;;1.70;;
14474;SDS011;7323;50.848;4.334;2023-04-24T15:42:30;4.97;;;1.60;;
14474;SDS011;7323;50.848;4.334;2023-04-24T15:44:56;5.23;;;1.90;;
14474;SDS011;7323;50.848;4.334;2023-04-24T15:47:39;5.33;;;1.80;;
14474;SDS011;7323;50.848;4.334;2023-04-24T15:50:05;4.73;;;1.80;;
14474;SDS011;7323;50.848;4.334;2023-04-24T15:52:34;3.07;;;1.90;;